createdAt,value
2022-08-22T00:08:44.857Z,98264.78
2022-08-22T00:14:02.208Z,98258.13
2022-08-22T00:19:25.553Z,98259.34
2022-08-22T00:24:48.665Z,98255.31
2022-08-22T00:30:00.831Z,98258.56
2022-08-22T00:35:15.248Z,98253.50
2022-08-22T00:40:29.138Z,98254.13
2022-08-22T00:45:39.831Z,98264.63
2022-08-22T00:51:15.002Z,98266.03
2022-08-22T00:56:41.777Z,98261.00
2022-08-22T01:01:56.430Z,98261.00
2022-08-22T01:07:48.721Z,98264.63
2022-08-22T01:13:13.145Z,98268.47
2022-08-22T01:18:56.115Z,98270.69
2022-08-22T01:24:00.633Z,98267.06
2022-08-22T01:29:32.664Z,98267.47
2022-08-22T01:34:49.469Z,98271.13
2022-08-22T01:40:10.087Z,98266.88
2022-08-22T01:45:46.001Z,98276.16
2022-08-22T01:50:55.148Z,98276.56
2022-08-22T01:56:09.219Z,98275.97
2022-08-22T02:01:10.971Z,98276.16
2022-08-22T02:06:23.339Z,98272.75
2022-08-22T02:11:44.645Z,98276.97
2022-08-22T02:16:55.037Z,98273.34
2022-08-22T02:22:18.457Z,98274.34
2022-08-22T02:27:40.105Z,98273.16
2022-08-22T02:33:02.400Z,98277.19
2022-08-22T02:38:31.577Z,98278.81
2022-08-22T02:43:36.891Z,98277.59
2022-08-22T02:48:53.728Z,98280.00
2022-08-22T02:54:21.805Z,98271.94
2022-08-22T02:59:33.653Z,98279.19
2022-08-22T03:04:41.549Z,98287.47
2022-08-22T03:09:49.560Z,98279.22
2022-08-22T03:15:03.530Z,98281.22
2022-08-22T03:20:11.078Z,98274.78
2022-08-22T03:25:26.268Z,98281.03
2022-08-22T03:30:37.110Z,98277.59
2022-08-22T03:35:42.615Z,98267.91
2022-08-22T03:41:06.920Z,98269.94
2022-08-22T03:46:44.012Z,98271.97
2022-08-22T03:52:04.677Z,98278.00
2022-08-22T03:57:09.169Z,98267.13
2022-08-22T04:02:43.482Z,98271.75
2022-08-22T04:08:08.505Z,98275.38
2022-08-22T04:13:29.128Z,98278.00
2022-08-22T04:19:01.997Z,98279.00
2022-08-22T04:24:13.039Z,98276.19
2022-08-22T04:29:37.577Z,98287.69
2022-08-22T04:35:06.944Z,98281.84
2022-08-22T04:40:19.529Z,98281.84
2022-08-22T04:45:52.526Z,98285.66
2022-08-22T04:51:08.281Z,98286.66
2022-08-22T04:56:24.802Z,98288.69
2022-08-22T05:01:39.297Z,98293.72
2022-08-22T05:06:47.362Z,98294.72
2022-08-22T05:11:54.059Z,98301.78
2022-08-22T05:16:57.509Z,98302.41
2022-08-22T05:22:01.156Z,98309.84
2022-08-22T05:27:18.385Z,98309.03
2022-08-22T05:32:29.117Z,98308.44
2022-08-22T05:37:36.598Z,98316.50
2022-08-22T05:42:38.526Z,98327.19
2022-08-22T05:47:50.070Z,98328.00
2022-08-22T05:53:00.217Z,98335.47
2022-08-22T05:58:04.627Z,98328.59
2022-08-22T06:03:24.332Z,98330.41
2022-08-22T06:08:40.152Z,98329.00
2022-08-22T06:13:49.690Z,98332.03
2022-08-22T06:18:56.366Z,98323.34
2022-08-22T06:24:01.667Z,98328.78
2022-08-22T06:29:07.746Z,98337.66
2022-08-22T06:34:14.814Z,98341.28
2022-08-22T06:39:24.168Z,98343.28
2022-08-22T06:44:35.796Z,98333.97
2022-08-22T06:49:40.512Z,98335.19
2022-08-22T06:54:47.771Z,98337.38
2022-08-22T06:59:50.830Z,98342.81
2022-08-22T07:04:53.228Z,98346.63
2022-08-22T07:09:57.702Z,98339.31
2022-08-22T07:15:10.013Z,98346.75
2022-08-22T07:20:27.084Z,98351.97
2022-08-22T07:25:32.100Z,98351.56
2022-08-22T07:31:03.121Z,98355.56
2022-08-22T07:36:34.094Z,98347.59
2022-08-22T07:42:15.332Z,98359.47
2022-08-22T07:47:26.179Z,98359.06
2022-08-22T07:52:38.708Z,98356.34
2022-08-22T07:57:45.607Z,98359.88
2022-08-22T08:03:01.474Z,98354.53
2022-08-22T08:08:32.475Z,98348.94
2022-08-22T08:13:38.253Z,98354.31
2022-08-22T08:18:40.612Z,98352.38
2022-08-22T08:23:47.393Z,98352.41
2022-08-22T08:28:52.727Z,98354.09
2022-08-22T08:34:06.788Z,98359.66
2022-08-22T08:39:35.999Z,98350.22
2022-08-22T08:44:49.829Z,98348.47
2022-08-22T08:50:16.100Z,98352.03
2022-08-22T08:55:45.800Z,98352.84
2022-08-22T09:01:29.709Z,98348.28
2022-08-22T09:07:01.015Z,98348.78
2022-08-22T09:12:12.465Z,98351.59
2022-08-22T09:17:52.182Z,98346.00
2022-08-22T09:23:20.310Z,98351.63
2022-08-22T09:28:40.054Z,98351.63
2022-08-22T09:34:06.199Z,98350.16
2022-08-22T09:39:18.166Z,98354.28
2022-08-22T09:44:41.151Z,98354.78
2022-08-22T09:50:10.472Z,98358.69
2022-08-22T09:55:35.191Z,98358.72
2022-08-22T10:00:47.301Z,98358.81
2022-08-22T10:06:05.603Z,98362.16
2022-08-22T10:11:43.282Z,98350.84
2022-08-22T10:17:10.548Z,98355.91
2022-08-22T10:22:15.889Z,98355.72
2022-08-22T10:27:40.083Z,98362.25
2022-08-22T10:32:56.640Z,98365.94
2022-08-22T10:38:25.077Z,98371.78
2022-08-22T10:44:00.494Z,98367.66
2022-08-22T10:49:28.243Z,98363.41
2022-08-22T10:54:43.250Z,98364.09
2022-08-22T11:00:08.992Z,98364.19
2022-08-22T11:05:18.471Z,98362.13
2022-08-22T11:10:32.592Z,98365.69
2022-08-22T11:15:51.165Z,98369.13
2022-08-22T11:21:14.696Z,98367.19
2022-08-22T11:26:33.618Z,98365.47
2022-08-22T11:31:47.427Z,98373.94
2022-08-22T11:37:01.547Z,98376.25
2022-08-22T11:42:09.225Z,98379.81
2022-08-22T11:47:16.493Z,98378.56
2022-08-22T11:52:30.674Z,98377.19
2022-08-22T11:57:44.852Z,98374.41
2022-08-22T12:02:47.543Z,98370.97
2022-08-22T12:08:04.438Z,98366.50
2022-08-22T12:13:38.721Z,98371.78
2022-08-22T12:18:55.180Z,98363.97
2022-08-22T12:24:57.765Z,98359.38
2022-08-22T12:30:13.736Z,98367.63
2022-08-22T12:35:29.813Z,98353.41
2022-08-22T12:41:14.225Z,98341.13
2022-08-22T12:47:02.190Z,98337.22
2022-08-22T12:52:40.111Z,98339.97
2022-08-22T12:57:42.397Z,98342.75
2022-08-22T13:02:53.713Z,98344.56
2022-08-22T13:08:04.630Z,98338.59
2022-08-22T13:13:12.144Z,98341.59
2022-08-22T13:18:30.050Z,98338.63
2022-08-22T13:23:44.113Z,98335.06
2022-08-22T13:28:56.757Z,98347.44
2022-08-22T13:35:00.307Z,98352.72
2022-08-22T13:40:07.781Z,98348.03
2022-08-22T13:45:21.316Z,98341.03
2022-08-22T13:50:28.874Z,98340.69
2022-08-22T13:55:43.706Z,98335.50
2022-08-22T14:01:14.236Z,98344.81
2022-08-22T14:06:54.848Z,98332.66
2022-08-22T14:12:25.338Z,98331.16
2022-08-22T14:18:01.045Z,98321.41
2022-08-22T14:23:18.906Z,98324.28
2022-08-22T14:28:31.509Z,98318.06
2022-08-22T14:33:54.373Z,98316.22
2022-08-22T14:39:10.333Z,98315.75
2022-08-22T14:44:22.382Z,98312.97
2022-08-22T14:49:56.577Z,98326.63
2022-08-22T14:55:24.252Z,98317.91
2022-08-22T15:00:31.463Z,98315.50
2022-08-22T15:05:50.268Z,98322.97
2022-08-22T15:11:11.267Z,98322.84
2022-08-22T15:16:17.876Z,98329.06
2022-08-22T15:21:24.804Z,98321.28
2022-08-22T15:26:35.508Z,98323.91
2022-08-22T15:31:46.796Z,98320.72
2022-08-22T15:37:24.874Z,98321.72
2022-08-22T15:42:50.202Z,98323.44
2022-08-22T15:47:54.375Z,98314.59
2022-08-22T15:53:13.931Z,98312.63
2022-08-22T15:58:25.323Z,98311.13
2022-08-22T16:03:31.711Z,98313.66
2022-08-22T16:08:36.717Z,98310.91
2022-08-22T16:13:43.864Z,98304.47
2022-08-22T16:18:49.015Z,98305.19
2022-08-22T16:23:53.894Z,98310.34
2022-08-22T16:29:14.991Z,98311.59
2022-08-22T16:34:23.217Z,98317.31
2022-08-22T16:39:25.185Z,98331.53
2022-08-22T16:44:39.292Z,98328.31
2022-08-22T16:50:16.869Z,98327.28
2022-08-22T16:55:31.004Z,98335.75
2022-08-22T17:00:32.838Z,98338.84
2022-08-22T17:06:07.816Z,98339.88
2022-08-22T17:11:27.937Z,98345.38
2022-08-22T17:16:52.052Z,98352.72
2022-08-22T17:22:39.081Z,98360.03
2022-08-22T17:27:45.133Z,98357.84
2022-08-22T17:33:02.981Z,98361.50
2022-08-22T17:38:20.591Z,98359.31
2022-08-22T17:44:19.755Z,98367.69
2022-08-22T17:49:49.423Z,98365.72
2022-08-22T17:55:08.452Z,98373.03
2022-08-22T18:00:18.885Z,98364.97
2022-08-22T18:05:28.370Z,98374.91
2022-08-22T18:10:45.930Z,98374.34
2022-08-22T18:16:20.970Z,98385.09
2022-08-22T18:21:37.733Z,98386.78
2022-08-22T18:27:34.817Z,98387.47
2022-08-22T18:32:55.043Z,98388.94
2022-08-22T18:38:19.182Z,98392.22
2022-08-22T18:43:32.151Z,98389.22
2022-08-22T18:48:34.468Z,98383.38
2022-08-22T18:53:44.881Z,98390.69
2022-08-22T18:59:05.341Z,98386.66
2022-08-22T19:04:40.591Z,98393.97
2022-08-22T19:10:10.021Z,98394.41
2022-08-22T19:15:29.448Z,98394.03
2022-08-22T19:20:56.687Z,98397.94
2022-08-22T19:26:23.716Z,98384.75
2022-08-22T19:31:42.950Z,98386.00
2022-08-22T19:37:06.445Z,98390.53
2022-08-22T19:42:20.522Z,98387.31
2022-08-22T19:47:28.769Z,98400.69
2022-08-22T19:52:40.655Z,98399.09
2022-08-22T19:58:16.595Z,98400.31
2022-08-22T20:03:42.422Z,98399.53
2022-08-22T20:09:21.845Z,98393.88
2022-08-22T20:14:30.721Z,98390.88
2022-08-22T20:25:42.278Z,98397.00
2022-08-22T20:30:47.059Z,98386.31
2022-08-22T20:35:59.582Z,98389.97
2022-08-22T20:41:26.472Z,98391.00
2022-08-22T20:46:34.188Z,98386.13
2022-08-22T20:51:37.118Z,98386.56
2022-08-22T20:56:53.032Z,98375.88
2022-08-22T21:02:20.810Z,98385.66
2022-08-22T21:07:44.622Z,98379.66
2022-08-22T21:13:09.495Z,98379.50
2022-08-22T21:18:14.705Z,98375.91
2022-08-22T21:23:17.311Z,98381.59
2022-08-22T21:28:37.309Z,98379.59
2022-08-22T21:33:45.167Z,98376.59
2022-08-22T21:38:56.121Z,98369.72
2022-08-22T21:44:37.897Z,98373.38
2022-08-22T21:50:13.442Z,98374.81
2022-08-22T21:55:29.089Z,98374.22
2022-08-22T22:00:54.971Z,98368.16
2022-08-22T22:06:02.226Z,98367.56
2022-08-22T22:11:11.397Z,98370.19
2022-08-22T22:16:16.026Z,98369.59
2022-08-22T22:21:18.076Z,98371.84
2022-08-22T22:26:21.648Z,98364.19
2022-08-22T22:31:23.485Z,98368.63
2022-08-22T22:36:27.210Z,98359.13
2022-08-22T22:41:29.198Z,98367.81
2022-08-22T22:46:31.192Z,98375.13
2022-08-22T22:51:33.046Z,98360.16
2022-08-22T22:56:34.993Z,98354.09
2022-08-22T23:01:36.848Z,98346.41
2022-08-22T23:06:38.614Z,98358.16
2022-08-22T23:11:40.441Z,98359.59
2022-08-22T23:16:42.441Z,98359.25
2022-08-22T23:21:45.576Z,98350.56
2022-08-22T23:26:47.368Z,98346.97
2022-08-22T23:31:52.671Z,98347.22
2022-08-22T23:36:57.326Z,98343.81
2022-08-22T23:41:59.801Z,98348.69
2022-08-22T23:47:02.753Z,98344.28
2022-08-22T23:52:06.208Z,98340.03
2022-08-22T23:57:11.940Z,98336.41
